sensor_id;sensor_type;location;lat;lon;timestamp;P1;durP1;ratioP1;P2;durP2;ratioP2
69795;SDS011;57073;45.650;9.612;2022-10-16T00:00:38;64.20;;;31.93;;
69795;SDS011;57073;45.650;9.612;2022-10-16T00:02:40;63.85;;;32.72;;
69795;SDS011;57073;45.650;9.612;2022-10-16T00:04:40;68.57;;;34.43;;
69795;SDS011;57073;45.650;9.612;2022-10-16T00:06:40;65.82;;;32.47;;
69795;SDS011;57073;45.650;9.612;2022-10-16T00:08:41;68.47;;;33.53;;
69795;SDS011;57073;45.650;9.612;2022-10-16T00:10:42;64.80;;;33.27;;
69795;SDS011;57073;45.650;9.612;2022-10-16T00:12:42;63.35;;;32.53;;
69795;SDS011;57073;45.650;9.612;2022-10-16T00:14:42;66.97;;;33.03;;
69795;SDS011;57073;45.650;9.612;2022-10-16T00:16:43;66.85;;;33.85;;
69795;SDS011;57073;45.650;9.612;2022-10-16T00:18:44;66.30;;;33.47;;
69795;SDS011;57073;45.650;9.612;2022-10-16T00:20:45;68.78;;;34.05;;
69795;SDS011;57073;45.650;9.612;2022-10-16T00:22:45;69.40;;;34.10;;
69795;SDS011;57073;45.650;9.612;2022-10-16T00:24:46;67.80;;;34.10;;
69795;SDS011;57073;45.650;9.612;2022-10-16T00:26:46;68.50;;;33.93;;
69795;SDS011;57073;45.650;9.612;2022-10-16T00:28:50;66.32;;;33.55;;
69795;SDS011;57073;45.650;9.612;2022-10-16T00:30:51;64.40;;;31.33;;
69795;SDS011;57073;45.650;9.612;2022-10-16T00:32:51;68.90;;;32.22;;
69795;SDS011;57073;45.650;9.612;2022-10-16T00:34:52;68.07;;;34.00;;
69795;SDS011;57073;45.650;9.612;2022-10-16T00:36:54;61.53;;;30.83;;
69795;SDS011;57073;45.650;9.612;2022-10-16T00:38:55;60.80;;;30.77;;
69795;SDS011;57073;45.650;9.612;2022-10-16T00:40:59;61.60;;;29.80;;
69795;SDS011;57073;45.650;9.612;2022-10-16T00:42:59;57.07;;;28.97;;
69795;SDS011;57073;45.650;9.612;2022-10-16T00:45:00;57.17;;;29.30;;
69795;SDS011;57073;45.650;9.612;2022-10-16T00:47:00;54.53;;;27.63;;
69795;SDS011;57073;45.650;9.612;2022-10-16T00:49:14;54.67;;;28.00;;
69795;SDS011;57073;45.650;9.612;2022-10-16T00:51:17;56.73;;;27.50;;
69795;SDS011;57073;45.650;9.612;2022-10-16T00:53:21;54.13;;;28.10;;
69795;SDS011;57073;45.650;9.612;2022-10-16T00:55:23;54.47;;;28.17;;
69795;SDS011;57073;45.650;9.612;2022-10-16T00:57:24;51.40;;;26.65;;
69795;SDS011;57073;45.650;9.612;2022-10-16T00:59:29;51.43;;;25.47;;
69795;SDS011;57073;45.650;9.612;2022-10-16T01:01:34;61.50;;;28.40;;
69795;SDS011;57073;45.650;9.612;2022-10-16T01:03:35;53.80;;;28.02;;
69795;SDS011;57073;45.650;9.612;2022-10-16T01:05:42;53.70;;;28.90;;
69795;SDS011;57073;45.650;9.612;2022-10-16T01:10:06;53.17;;;28.63;;
69795;SDS011;57073;45.650;9.612;2022-10-16T01:12:23;57.78;;;28.48;;
69795;SDS011;57073;45.650;9.612;2022-10-16T01:14:45;56.35;;;29.65;;
69795;SDS011;57073;45.650;9.612;2022-10-16T01:17:02;56.00;;;28.67;;
69795;SDS011;57073;45.650;9.612;2022-10-16T01:19:14;56.17;;;28.98;;
69795;SDS011;57073;45.650;9.612;2022-10-16T01:21:19;60.38;;;28.85;;
69795;SDS011;57073;45.650;9.612;2022-10-16T01:25:44;59.37;;;29.73;;
69795;SDS011;57073;45.650;9.612;2022-10-16T01:27:51;54.30;;;28.77;;
69795;SDS011;57073;45.650;9.612;2022-10-16T01:30:06;60.38;;;30.83;;
69795;SDS011;57073;45.650;9.612;2022-10-16T01:34:33;66.90;;;32.63;;
69795;SDS011;57073;45.650;9.612;2022-10-16T01:36:39;63.10;;;31.40;;
69795;SDS011;57073;45.650;9.612;2022-10-16T01:38:44;62.00;;;32.22;;
69795;SDS011;57073;45.650;9.612;2022-10-16T01:40:51;62.75;;;31.55;;
69795;SDS011;57073;45.650;9.612;2022-10-16T01:43:02;66.70;;;32.03;;
69795;SDS011;57073;45.650;9.612;2022-10-16T01:45:05;62.58;;;32.03;;
69795;SDS011;57073;45.650;9.612;2022-10-16T01:47:08;63.40;;;32.70;;
69795;SDS011;57073;45.650;9.612;2022-10-16T01:49:10;61.42;;;32.42;;
69795;SDS011;57073;45.650;9.612;2022-10-16T01:51:13;63.75;;;32.28;;
69795;SDS011;57073;45.650;9.612;2022-10-16T01:53:15;70.83;;;32.97;;
69795;SDS011;57073;45.650;9.612;2022-10-16T01:55:19;67.07;;;33.75;;
69795;SDS011;57073;45.650;9.612;2022-10-16T01:57:24;67.22;;;33.17;;
69795;SDS011;57073;45.650;9.612;2022-10-16T01:59:27;62.70;;;32.40;;
69795;SDS011;57073;45.650;9.612;2022-10-16T02:01:32;66.13;;;32.60;;
69795;SDS011;57073;45.650;9.612;2022-10-16T02:03:35;65.57;;;33.47;;
69795;SDS011;57073;45.650;9.612;2022-10-16T02:05:45;64.80;;;32.67;;
69795;SDS011;57073;45.650;9.612;2022-10-16T02:07:48;65.72;;;32.95;;
69795;SDS011;57073;45.650;9.612;2022-10-16T02:09:48;64.93;;;33.33;;
69795;SDS011;57073;45.650;9.612;2022-10-16T02:11:50;69.47;;;33.13;;
69795;SDS011;57073;45.650;9.612;2022-10-16T02:13:55;62.20;;;31.67;;
69795;SDS011;57073;45.650;9.612;2022-10-16T02:16:01;69.32;;;34.08;;
69795;SDS011;57073;45.650;9.612;2022-10-16T02:18:02;65.17;;;31.97;;
69795;SDS011;57073;45.650;9.612;2022-10-16T02:20:05;60.95;;;31.58;;
69795;SDS011;57073;45.650;9.612;2022-10-16T02:22:06;64.18;;;31.60;;
69795;SDS011;57073;45.650;9.612;2022-10-16T02:26:52;62.50;;;31.57;;
69795;SDS011;57073;45.650;9.612;2022-10-16T02:29:08;62.97;;;31.30;;
69795;SDS011;57073;45.650;9.612;2022-10-16T02:31:15;59.72;;;30.90;;
69795;SDS011;57073;45.650;9.612;2022-10-16T02:33:20;63.83;;;30.88;;
69795;SDS011;57073;45.650;9.612;2022-10-16T02:35:23;58.50;;;30.70;;
69795;SDS011;57073;45.650;9.612;2022-10-16T02:37:25;54.57;;;28.37;;
69795;SDS011;57073;45.650;9.612;2022-10-16T02:39:27;59.08;;;29.90;;
69795;SDS011;57073;45.650;9.612;2022-10-16T02:41:29;60.08;;;28.90;;
69795;SDS011;57073;45.650;9.612;2022-10-16T02:43:30;58.70;;;29.83;;
69795;SDS011;57073;45.650;9.612;2022-10-16T02:45:31;57.97;;;29.63;;
69795;SDS011;57073;45.650;9.612;2022-10-16T02:47:31;55.28;;;28.70;;
69795;SDS011;57073;45.650;9.612;2022-10-16T02:49:32;55.67;;;28.63;;
69795;SDS011;57073;45.650;9.612;2022-10-16T02:51:32;55.50;;;29.53;;
69795;SDS011;57073;45.650;9.612;2022-10-16T02:53:32;52.97;;;28.20;;
69795;SDS011;57073;45.650;9.612;2022-10-16T02:55:33;53.20;;;27.17;;
69795;SDS011;57073;45.650;9.612;2022-10-16T02:57:33;50.97;;;26.70;;
69795;SDS011;57073;45.650;9.612;2022-10-16T02:59:34;55.10;;;27.70;;
69795;SDS011;57073;45.650;9.612;2022-10-16T03:01:34;53.53;;;27.10;;
69795;SDS011;57073;45.650;9.612;2022-10-16T03:03:34;49.53;;;27.73;;
69795;SDS011;57073;45.650;9.612;2022-10-16T03:05:35;51.53;;;27.03;;
69795;SDS011;57073;45.650;9.612;2022-10-16T03:07:35;46.93;;;24.73;;
69795;SDS011;57073;45.650;9.612;2022-10-16T03:09:35;47.83;;;24.97;;
69795;SDS011;57073;45.650;9.612;2022-10-16T03:11:36;47.67;;;24.80;;
69795;SDS011;57073;45.650;9.612;2022-10-16T03:13:36;50.17;;;25.73;;
69795;SDS011;57073;45.650;9.612;2022-10-16T03:15:36;48.73;;;26.13;;
69795;SDS011;57073;45.650;9.612;2022-10-16T03:17:37;42.50;;;24.60;;
69795;SDS011;57073;45.650;9.612;2022-10-16T03:19:37;47.87;;;25.20;;
69795;SDS011;57073;45.650;9.612;2022-10-16T03:21:38;45.93;;;24.77;;
69795;SDS011;57073;45.650;9.612;2022-10-16T03:23:38;47.30;;;24.37;;
69795;SDS011;57073;45.650;9.612;2022-10-16T03:25:39;45.45;;;24.42;;
69795;SDS011;57073;45.650;9.612;2022-10-16T03:27:39;46.53;;;24.87;;
69795;SDS011;57073;45.650;9.612;2022-10-16T03:29:39;45.50;;;24.60;;
69795;SDS011;57073;45.650;9.612;2022-10-16T03:31:40;45.80;;;24.25;;
69795;SDS011;57073;45.650;9.612;2022-10-16T03:33:41;44.77;;;24.17;;
69795;SDS011;57073;45.650;9.612;2022-10-16T03:35:41;48.93;;;25.60;;
69795;SDS011;57073;45.650;9.612;2022-10-16T03:37:41;49.97;;;26.20;;
69795;SDS011;57073;45.650;9.612;2022-10-16T03:39:42;45.40;;;24.03;;
69795;SDS011;57073;45.650;9.612;2022-10-16T03:41:42;46.67;;;24.17;;
69795;SDS011;57073;45.650;9.612;2022-10-16T03:43:42;53.63;;;24.93;;
69795;SDS011;57073;45.650;9.612;2022-10-16T03:45:43;46.80;;;24.33;;
69795;SDS011;57073;45.650;9.612;2022-10-16T03:47:43;47.55;;;25.25;;
69795;SDS011;57073;45.650;9.612;2022-10-16T03:49:43;48.50;;;25.00;;
69795;SDS011;57073;45.650;9.612;2022-10-16T03:51:44;44.93;;;24.57;;
69795;SDS011;57073;45.650;9.612;2022-10-16T03:53:44;47.17;;;25.33;;
69795;SDS011;57073;45.650;9.612;2022-10-16T03:55:44;40.97;;;23.30;;
69795;SDS011;57073;45.650;9.612;2022-10-16T03:57:45;44.05;;;24.23;;
69795;SDS011;57073;45.650;9.612;2022-10-16T03:59:46;44.53;;;23.63;;
69795;SDS011;57073;45.650;9.612;2022-10-16T04:01:46;41.45;;;23.17;;
69795;SDS011;57073;45.650;9.612;2022-10-16T04:03:46;43.13;;;23.60;;
69795;SDS011;57073;45.650;9.612;2022-10-16T04:05:47;46.70;;;24.47;;
69795;SDS011;57073;45.650;9.612;2022-10-16T04:07:47;45.10;;;23.37;;
69795;SDS011;57073;45.650;9.612;2022-10-16T04:09:48;43.33;;;23.23;;
69795;SDS011;57073;45.650;9.612;2022-10-16T04:11:48;45.80;;;25.08;;
69795;SDS011;57073;45.650;9.612;2022-10-16T04:13:48;43.67;;;23.73;;
69795;SDS011;57073;45.650;9.612;2022-10-16T04:15:49;40.63;;;23.33;;
69795;SDS011;57073;45.650;9.612;2022-10-16T04:17:49;44.90;;;23.93;;
69795;SDS011;57073;45.650;9.612;2022-10-16T04:19:49;44.27;;;23.07;;
69795;SDS011;57073;45.650;9.612;2022-10-16T04:21:50;42.30;;;23.10;;
69795;SDS011;57073;45.650;9.612;2022-10-16T04:23:50;41.60;;;22.73;;
69795;SDS011;57073;45.650;9.612;2022-10-16T04:25:51;42.57;;;23.40;;
69795;SDS011;57073;45.650;9.612;2022-10-16T04:27:55;41.83;;;22.77;;
69795;SDS011;57073;45.650;9.612;2022-10-16T04:29:55;41.30;;;21.90;;
69795;SDS011;57073;45.650;9.612;2022-10-16T04:31:56;41.37;;;22.70;;
69795;SDS011;57073;45.650;9.612;2022-10-16T04:33:56;41.27;;;22.50;;
69795;SDS011;57073;45.650;9.612;2022-10-16T04:36:00;41.30;;;22.57;;
69795;SDS011;57073;45.650;9.612;2022-10-16T04:38:01;39.60;;;23.15;;
69795;SDS011;57073;45.650;9.612;2022-10-16T04:40:01;44.93;;;21.73;;
69795;SDS011;57073;45.650;9.612;2022-10-16T04:42:02;41.10;;;22.17;;
69795;SDS011;57073;45.650;9.612;2022-10-16T04:44:02;38.65;;;22.52;;
69795;SDS011;57073;45.650;9.612;2022-10-16T04:46:03;41.27;;;22.47;;
69795;SDS011;57073;45.650;9.612;2022-10-16T04:48:04;40.08;;;23.50;;
69795;SDS011;57073;45.650;9.612;2022-10-16T04:50:05;36.83;;;21.53;;
69795;SDS011;57073;45.650;9.612;2022-10-16T04:52:06;38.97;;;22.15;;
69795;SDS011;57073;45.650;9.612;2022-10-16T04:54:06;39.70;;;22.30;;
69795;SDS011;57073;45.650;9.612;2022-10-16T04:56:06;41.50;;;22.20;;
69795;SDS011;57073;45.650;9.612;2022-10-16T04:58:07;37.30;;;21.67;;
69795;SDS011;57073;45.650;9.612;2022-10-16T05:00:08;39.55;;;21.38;;
69795;SDS011;57073;45.650;9.612;2022-10-16T05:02:09;41.07;;;22.50;;
69795;SDS011;57073;45.650;9.612;2022-10-16T05:04:09;40.72;;;22.35;;
69795;SDS011;57073;45.650;9.612;2022-10-16T05:06:10;43.33;;;22.63;;
69795;SDS011;57073;45.650;9.612;2022-10-16T05:08:11;41.07;;;23.23;;
69795;SDS011;57073;45.650;9.612;2022-10-16T05:10:13;39.27;;;21.33;;
69795;SDS011;57073;45.650;9.612;2022-10-16T05:12:13;40.60;;;23.00;;
69795;SDS011;57073;45.650;9.612;2022-10-16T05:14:14;39.23;;;22.47;;
69795;SDS011;57073;45.650;9.612;2022-10-16T05:16:14;40.57;;;22.63;;
69795;SDS011;57073;45.650;9.612;2022-10-16T05:18:15;40.55;;;22.55;;
69795;SDS011;57073;45.650;9.612;2022-10-16T05:20:16;39.08;;;22.02;;
69795;SDS011;57073;45.650;9.612;2022-10-16T05:22:17;40.37;;;22.50;;
69795;SDS011;57073;45.650;9.612;2022-10-16T05:24:17;37.23;;;20.53;;
69795;SDS011;57073;45.650;9.612;2022-10-16T05:26:18;43.58;;;22.90;;
69795;SDS011;57073;45.650;9.612;2022-10-16T05:28:18;41.23;;;21.67;;
69795;SDS011;57073;45.650;9.612;2022-10-16T05:30:18;39.17;;;21.37;;
69795;SDS011;57073;45.650;9.612;2022-10-16T05:32:20;39.80;;;22.35;;
69795;SDS011;57073;45.650;9.612;2022-10-16T05:34:20;40.60;;;22.43;;
69795;SDS011;57073;45.650;9.612;2022-10-16T05:36:21;42.60;;;22.33;;
69795;SDS011;57073;45.650;9.612;2022-10-16T05:38:21;42.05;;;22.70;;
69795;SDS011;57073;45.650;9.612;2022-10-16T05:40:22;42.10;;;22.83;;
69795;SDS011;57073;45.650;9.612;2022-10-16T05:42:22;42.90;;;22.23;;
69795;SDS011;57073;45.650;9.612;2022-10-16T05:44:23;46.17;;;24.10;;
69795;SDS011;57073;45.650;9.612;2022-10-16T05:46:23;41.73;;;23.40;;
69795;SDS011;57073;45.650;9.612;2022-10-16T05:48:24;40.63;;;22.27;;
69795;SDS011;57073;45.650;9.612;2022-10-16T05:50:25;41.47;;;22.60;;
69795;SDS011;57073;45.650;9.612;2022-10-16T05:52:26;39.35;;;21.67;;
69795;SDS011;57073;45.650;9.612;2022-10-16T05:54:27;44.17;;;22.95;;
69795;SDS011;57073;45.650;9.612;2022-10-16T05:56:28;43.40;;;23.17;;
69795;SDS011;57073;45.650;9.612;2022-10-16T05:58:29;40.80;;;22.87;;
69795;SDS011;57073;45.650;9.612;2022-10-16T06:00:35;40.85;;;21.85;;
69795;SDS011;57073;45.650;9.612;2022-10-16T06:02:35;42.87;;;22.33;;
69795;SDS011;57073;45.650;9.612;2022-10-16T06:04:36;39.78;;;22.00;;
69795;SDS011;57073;45.650;9.612;2022-10-16T06:06:36;37.43;;;20.80;;
69795;SDS011;57073;45.650;9.612;2022-10-16T06:08:37;39.67;;;21.77;;
69795;SDS011;57073;45.650;9.612;2022-10-16T06:10:37;39.55;;;21.65;;
69795;SDS011;57073;45.650;9.612;2022-10-16T06:12:38;39.87;;;21.37;;
69795;SDS011;57073;45.650;9.612;2022-10-16T06:14:38;40.00;;;21.83;;
69795;SDS011;57073;45.650;9.612;2022-10-16T06:16:38;39.05;;;21.73;;
69795;SDS011;57073;45.650;9.612;2022-10-16T06:18:39;39.97;;;21.57;;
69795;SDS011;57073;45.650;9.612;2022-10-16T06:20:39;36.27;;;21.27;;
69795;SDS011;57073;45.650;9.612;2022-10-16T06:22:40;37.33;;;20.85;;
69795;SDS011;57073;45.650;9.612;2022-10-16T06:24:40;39.10;;;21.20;;
69795;SDS011;57073;45.650;9.612;2022-10-16T06:26:41;36.93;;;21.03;;
69795;SDS011;57073;45.650;9.612;2022-10-16T06:28:41;37.33;;;21.63;;
69795;SDS011;57073;45.650;9.612;2022-10-16T06:30:42;37.97;;;21.58;;
69795;SDS011;57073;45.650;9.612;2022-10-16T06:32:45;40.13;;;21.92;;
69795;SDS011;57073;45.650;9.612;2022-10-16T06:34:46;39.33;;;21.63;;
69795;SDS011;57073;45.650;9.612;2022-10-16T06:36:46;40.33;;;22.13;;
69795;SDS011;57073;45.650;9.612;2022-10-16T06:38:47;36.75;;;21.60;;
69795;SDS011;57073;45.650;9.612;2022-10-16T06:40:47;41.40;;;22.53;;
69795;SDS011;57073;45.650;9.612;2022-10-16T06:42:48;41.67;;;21.80;;
69795;SDS011;57073;45.650;9.612;2022-10-16T06:44:48;44.77;;;22.80;;
69795;SDS011;57073;45.650;9.612;2022-10-16T06:46:49;40.77;;;22.13;;
69795;SDS011;57073;45.650;9.612;2022-10-16T06:48:49;43.70;;;23.33;;
69795;SDS011;57073;45.650;9.612;2022-10-16T06:52:57;40.20;;;22.30;;
69795;SDS011;57073;45.650;9.612;2022-10-16T06:54:57;38.77;;;21.87;;
69795;SDS011;57073;45.650;9.612;2022-10-16T06:56:57;44.70;;;24.37;;
69795;SDS011;57073;45.650;9.612;2022-10-16T06:59:00;40.03;;;21.83;;
69795;SDS011;57073;45.650;9.612;2022-10-16T07:01:01;40.70;;;22.90;;
69795;SDS011;57073;45.650;9.612;2022-10-16T07:03:01;42.03;;;22.80;;
69795;SDS011;57073;45.650;9.612;2022-10-16T07:05:02;44.60;;;23.30;;
69795;SDS011;57073;45.650;9.612;2022-10-16T07:07:02;42.85;;;23.52;;
69795;SDS011;57073;45.650;9.612;2022-10-16T07:09:04;43.97;;;23.20;;
69795;SDS011;57073;45.650;9.612;2022-10-16T07:11:09;42.58;;;23.55;;
69795;SDS011;57073;45.650;9.612;2022-10-16T07:13:11;40.20;;;22.58;;
69795;SDS011;57073;45.650;9.612;2022-10-16T07:15:14;45.10;;;23.90;;
69795;SDS011;57073;45.650;9.612;2022-10-16T07:17:15;44.15;;;23.13;;
69795;SDS011;57073;45.650;9.612;2022-10-16T07:19:15;39.80;;;21.83;;
69795;SDS011;57073;45.650;9.612;2022-10-16T07:21:20;40.17;;;22.45;;
69795;SDS011;57073;45.650;9.612;2022-10-16T07:23:22;41.10;;;23.08;;
69795;SDS011;57073;45.650;9.612;2022-10-16T07:25:22;38.87;;;21.87;;
69795;SDS011;57073;45.650;9.612;2022-10-16T07:27:23;40.73;;;24.43;;
69795;SDS011;57073;45.650;9.612;2022-10-16T07:29:24;39.35;;;22.98;;
69795;SDS011;57073;45.650;9.612;2022-10-16T07:31:24;50.20;;;24.03;;
69795;SDS011;57073;45.650;9.612;2022-10-16T07:33:25;43.13;;;22.35;;
69795;SDS011;57073;45.650;9.612;2022-10-16T07:35:25;37.17;;;22.33;;
69795;SDS011;57073;45.650;9.612;2022-10-16T07:37:25;40.57;;;22.30;;
69795;SDS011;57073;45.650;9.612;2022-10-16T07:39:26;42.43;;;23.43;;
69795;SDS011;57073;45.650;9.612;2022-10-16T07:41:26;42.80;;;23.65;;
69795;SDS011;57073;45.650;9.612;2022-10-16T07:43:28;45.90;;;24.17;;
69795;SDS011;57073;45.650;9.612;2022-10-16T07:45:29;42.97;;;23.95;;
69795;SDS011;57073;45.650;9.612;2022-10-16T07:47:29;44.50;;;24.87;;
69795;SDS011;57073;45.650;9.612;2022-10-16T07:49:30;46.07;;;24.67;;
69795;SDS011;57073;45.650;9.612;2022-10-16T07:51:30;43.90;;;22.40;;
69795;SDS011;57073;45.650;9.612;2022-10-16T07:53:31;45.10;;;23.93;;
69795;SDS011;57073;45.650;9.612;2022-10-16T07:55:31;40.13;;;22.83;;
69795;SDS011;57073;45.650;9.612;2022-10-16T07:57:32;41.57;;;23.80;;
69795;SDS011;57073;45.650;9.612;2022-10-16T07:59:32;43.13;;;24.40;;
69795;SDS011;57073;45.650;9.612;2022-10-16T08:01:32;44.27;;;23.73;;
69795;SDS011;57073;45.650;9.612;2022-10-16T08:03:33;42.10;;;23.58;;
69795;SDS011;57073;45.650;9.612;2022-10-16T08:05:34;39.87;;;22.87;;
69795;SDS011;57073;45.650;9.612;2022-10-16T08:07:34;43.73;;;24.70;;
69795;SDS011;57073;45.650;9.612;2022-10-16T08:09:34;43.90;;;23.95;;
69795;SDS011;57073;45.650;9.612;2022-10-16T08:11:35;41.10;;;23.67;;
69795;SDS011;57073;45.650;9.612;2022-10-16T08:13:35;43.40;;;23.70;;
69795;SDS011;57073;45.650;9.612;2022-10-16T08:15:36;44.55;;;24.75;;
69795;SDS011;57073;45.650;9.612;2022-10-16T08:17:37;46.13;;;23.97;;
69795;SDS011;57073;45.650;9.612;2022-10-16T08:19:37;43.40;;;25.10;;
69795;SDS011;57073;45.650;9.612;2022-10-16T08:21:37;44.43;;;24.33;;
69795;SDS011;57073;45.650;9.612;2022-10-16T08:23:38;41.80;;;23.80;;
69795;SDS011;57073;45.650;9.612;2022-10-16T08:25:39;43.87;;;25.30;;
69795;SDS011;57073;45.650;9.612;2022-10-16T08:27:40;44.08;;;24.42;;
69795;SDS011;57073;45.650;9.612;2022-10-16T08:29:40;45.67;;;25.43;;
69795;SDS011;57073;45.650;9.612;2022-10-16T08:31:41;52.38;;;28.65;;
69795;SDS011;57073;45.650;9.612;2022-10-16T08:33:42;47.63;;;27.37;;
69795;SDS011;57073;45.650;9.612;2022-10-16T08:35:52;54.25;;;28.08;;
69795;SDS011;57073;45.650;9.612;2022-10-16T08:37:53;63.70;;;31.90;;
69795;SDS011;57073;45.650;9.612;2022-10-16T08:39:54;54.33;;;30.00;;
69795;SDS011;57073;45.650;9.612;2022-10-16T08:46:20;51.47;;;28.58;;
69795;SDS011;57073;45.650;9.612;2022-10-16T08:50:28;57.10;;;31.10;;
69795;SDS011;57073;45.650;9.612;2022-10-16T08:52:32;56.58;;;31.05;;
69795;SDS011;57073;45.650;9.612;2022-10-16T08:54:36;55.33;;;29.55;;
69795;SDS011;57073;45.650;9.612;2022-10-16T08:56:42;54.45;;;29.85;;
69795;SDS011;57073;45.650;9.612;2022-10-16T08:58:42;61.27;;;32.83;;
69795;SDS011;57073;45.650;9.612;2022-10-16T09:00:51;61.60;;;31.13;;
69795;SDS011;57073;45.650;9.612;2022-10-16T09:08:03;64.75;;;34.25;;
69795;SDS011;57073;45.650;9.612;2022-10-16T09:10:11;66.80;;;34.65;;
69795;SDS011;57073;45.650;9.612;2022-10-16T09:12:32;72.03;;;36.10;;
69795;SDS011;57073;45.650;9.612;2022-10-16T09:17:00;65.17;;;34.00;;
69795;SDS011;57073;45.650;9.612;2022-10-16T09:19:18;69.28;;;36.17;;
69795;SDS011;57073;45.650;9.612;2022-10-16T09:21:29;66.28;;;35.10;;
69795;SDS011;57073;45.650;9.612;2022-10-16T09:23:34;68.20;;;35.70;;
69795;SDS011;57073;45.650;9.612;2022-10-16T09:25:36;66.55;;;36.28;;
69795;SDS011;57073;45.650;9.612;2022-10-16T09:27:39;67.07;;;35.90;;
69795;SDS011;57073;45.650;9.612;2022-10-16T09:29:40;65.82;;;34.95;;
69795;SDS011;57073;45.650;9.612;2022-10-16T09:31:40;67.97;;;36.73;;
69795;SDS011;57073;45.650;9.612;2022-10-16T09:33:42;73.25;;;38.50;;
69795;SDS011;57073;45.650;9.612;2022-10-16T09:35:45;73.65;;;37.78;;
69795;SDS011;57073;45.650;9.612;2022-10-16T09:37:51;74.88;;;38.05;;
69795;SDS011;57073;45.650;9.612;2022-10-16T09:39:54;68.53;;;35.03;;
69795;SDS011;57073;45.650;9.612;2022-10-16T09:41:55;67.18;;;35.20;;
69795;SDS011;57073;45.650;9.612;2022-10-16T09:43:59;66.03;;;35.40;;
69795;SDS011;57073;45.650;9.612;2022-10-16T09:46:09;68.17;;;36.30;;
69795;SDS011;57073;45.650;9.612;2022-10-16T09:48:32;69.93;;;35.28;;
69795;SDS011;57073;45.650;9.612;2022-10-16T09:50:36;71.80;;;36.47;;
69795;SDS011;57073;45.650;9.612;2022-10-16T09:52:37;75.63;;;36.37;;
69795;SDS011;57073;45.650;9.612;2022-10-16T09:54:37;70.03;;;37.30;;
69795;SDS011;57073;45.650;9.612;2022-10-16T09:56:37;65.93;;;35.72;;
69795;SDS011;57073;45.650;9.612;2022-10-16T09:58:42;75.73;;;37.93;;
69795;SDS011;57073;45.650;9.612;2022-10-16T10:00:51;73.20;;;38.03;;
69795;SDS011;57073;45.650;9.612;2022-10-16T10:02:53;77.05;;;38.28;;
69795;SDS011;57073;45.650;9.612;2022-10-16T10:04:54;68.03;;;35.63;;
69795;SDS011;57073;45.650;9.612;2022-10-16T10:06:56;69.28;;;35.80;;
69795;SDS011;57073;45.650;9.612;2022-10-16T10:08:58;74.67;;;37.97;;
69795;SDS011;57073;45.650;9.612;2022-10-16T10:10:59;70.22;;;36.95;;
69795;SDS011;57073;45.650;9.612;2022-10-16T10:12:59;68.72;;;36.65;;
69795;SDS011;57073;45.650;9.612;2022-10-16T10:15:04;68.70;;;35.73;;
69795;SDS011;57073;45.650;9.612;2022-10-16T10:19:12;73.27;;;37.67;;
69795;SDS011;57073;45.650;9.612;2022-10-16T10:21:20;74.80;;;37.70;;
69795;SDS011;57073;45.650;9.612;2022-10-16T10:23:22;67.40;;;36.97;;
69795;SDS011;57073;45.650;9.612;2022-10-16T10:25:34;71.97;;;37.87;;
69795;SDS011;57073;45.650;9.612;2022-10-16T10:33:32;65.95;;;35.70;;
69795;SDS011;57073;45.650;9.612;2022-10-16T10:35:26;67.75;;;36.15;;
69795;SDS011;57073;45.650;9.612;2022-10-16T10:37:35;69.03;;;34.87;;
69795;SDS011;57073;45.650;9.612;2022-10-16T10:39:47;70.70;;;35.45;;
69795;SDS011;57073;45.650;9.612;2022-10-16T10:42:03;64.63;;;34.42;;
69795;SDS011;57073;45.650;9.612;2022-10-16T10:46:23;68.55;;;34.53;;
69795;SDS011;57073;45.650;9.612;2022-10-16T11:00:06;69.53;;;35.80;;
69795;SDS011;57073;45.650;9.612;2022-10-16T11:02:22;73.78;;;37.42;;
69795;SDS011;57073;45.650;9.612;2022-10-16T11:09:17;64.43;;;34.35;;
69795;SDS011;57073;45.650;9.612;2022-10-16T11:11:32;72.53;;;36.50;;
69795;SDS011;57073;45.650;9.612;2022-10-16T11:18:37;67.97;;;33.78;;
69795;SDS011;57073;45.650;9.612;2022-10-16T11:20:51;68.40;;;33.90;;
69795;SDS011;57073;45.650;9.612;2022-10-16T11:23:10;61.45;;;32.25;;
69795;SDS011;57073;45.650;9.612;2022-10-16T11:25:28;66.10;;;34.77;;
69795;SDS011;57073;45.650;9.612;2022-10-16T11:27:43;70.00;;;36.67;;
69795;SDS011;57073;45.650;9.612;2022-10-16T11:29:50;69.25;;;35.92;;
69795;SDS011;57073;45.650;9.612;2022-10-16T11:32:04;71.35;;;34.63;;
69795;SDS011;57073;45.650;9.612;2022-10-16T11:34:32;65.05;;;34.78;;
69795;SDS011;57073;45.650;9.612;2022-10-16T11:36:39;64.22;;;34.50;;
69795;SDS011;57073;45.650;9.612;2022-10-16T11:38:55;63.33;;;32.17;;
69795;SDS011;57073;45.650;9.612;2022-10-16T11:41:02;62.92;;;33.00;;
69795;SDS011;57073;45.650;9.612;2022-10-16T11:43:12;64.07;;;33.00;;
69795;SDS011;57073;45.650;9.612;2022-10-16T11:47:37;59.75;;;32.50;;
69795;SDS011;57073;45.650;9.612;2022-10-16T11:49:41;66.23;;;34.13;;
69795;SDS011;57073;45.650;9.612;2022-10-16T11:51:48;66.65;;;36.45;;
69795;SDS011;57073;45.650;9.612;2022-10-16T11:56:53;67.57;;;35.20;;
69795;SDS011;57073;45.650;9.612;2022-10-16T12:05:33;69.83;;;36.83;;
69795;SDS011;57073;45.650;9.612;2022-10-16T12:07:36;70.63;;;35.67;;
69795;SDS011;57073;45.650;9.612;2022-10-16T12:09:41;74.25;;;36.83;;
69795;SDS011;57073;45.650;9.612;2022-10-16T12:11:43;68.68;;;35.80;;
69795;SDS011;57073;45.650;9.612;2022-10-16T12:13:43;68.13;;;35.47;;
69795;SDS011;57073;45.650;9.612;2022-10-16T12:15:43;65.25;;;34.55;;
69795;SDS011;57073;45.650;9.612;2022-10-16T12:17:44;66.50;;;33.80;;
69795;SDS011;57073;45.650;9.612;2022-10-16T12:19:44;64.50;;;33.83;;
69795;SDS011;57073;45.650;9.612;2022-10-16T12:21:59;66.28;;;34.22;;
69795;SDS011;57073;45.650;9.612;2022-10-16T12:24:01;67.65;;;33.60;;
69795;SDS011;57073;45.650;9.612;2022-10-16T12:26:04;63.63;;;32.00;;
69795;SDS011;57073;45.650;9.612;2022-10-16T12:28:06;62.22;;;31.95;;
69795;SDS011;57073;45.650;9.612;2022-10-16T12:30:28;54.15;;;30.33;;
69795;SDS011;57073;45.650;9.612;2022-10-16T12:32:32;60.70;;;32.13;;
69795;SDS011;57073;45.650;9.612;2022-10-16T12:34:39;64.65;;;32.22;;
69795;SDS011;57073;45.650;9.612;2022-10-16T12:36:43;58.27;;;31.33;;
69795;SDS011;57073;45.650;9.612;2022-10-16T12:38:47;57.10;;;30.80;;
69795;SDS011;57073;45.650;9.612;2022-10-16T12:40:57;59.30;;;31.10;;
69795;SDS011;57073;45.650;9.612;2022-10-16T12:44:04;62.88;;;33.42;;
69795;SDS011;57073;45.650;9.612;2022-10-16T12:45:37;59.78;;;31.65;;
69795;SDS011;57073;45.650;9.612;2022-10-16T12:47:38;67.43;;;33.50;;
69795;SDS011;57073;45.650;9.612;2022-10-16T12:49:49;61.65;;;32.80;;
69795;SDS011;57073;45.650;9.612;2022-10-16T12:51:54;60.10;;;31.60;;
69795;SDS011;57073;45.650;9.612;2022-10-16T12:54:02;60.33;;;32.72;;
69795;SDS011;57073;45.650;9.612;2022-10-16T12:56:16;60.70;;;32.35;;
69795;SDS011;57073;45.650;9.612;2022-10-16T13:01:11;57.50;;;31.42;;
69795;SDS011;57073;45.650;9.612;2022-10-16T13:11:18;54.57;;;30.63;;
69795;SDS011;57073;45.650;9.612;2022-10-16T13:18:05;56.33;;;30.55;;
69795;SDS011;57073;45.650;9.612;2022-10-16T13:29:01;57.08;;;29.58;;
69795;SDS011;57073;45.650;9.612;2022-10-16T13:31:03;56.92;;;30.85;;
69795;SDS011;57073;45.650;9.612;2022-10-16T13:33:12;59.03;;;31.08;;